createdAt,value
2022-10-22T00:00:38.832Z,101060.56
2022-10-22T00:03:09.531Z,101056.59
2022-10-22T00:05:38.684Z,101050.22
2022-10-22T00:08:09.290Z,101048.97
2022-10-22T00:10:40.331Z,101050.06
2022-10-22T00:13:11.829Z,101054.47
2022-10-22T00:15:42.142Z,101050.75
2022-10-22T00:18:12.576Z,101047.06
2022-10-22T00:20:41.394Z,101063.34
2022-10-22T00:23:10.191Z,101051.41
2022-10-22T00:25:39.079Z,101054.25
2022-10-22T00:28:08.904Z,101057.78
2022-10-22T00:30:38.005Z,101059.44
2022-10-22T00:33:06.532Z,101070.25
2022-10-22T00:35:37.410Z,101069.03
2022-10-22T00:38:06.978Z,101057.28
2022-10-22T00:40:35.629Z,101061.25
2022-10-22T00:43:10.728Z,101068.50
2022-10-22T00:45:42.533Z,101067.31
2022-10-22T00:48:15.064Z,101067.88
2022-10-22T00:50:53.982Z,101076.66
2022-10-22T00:53:28.580Z,101067.41
2022-10-22T00:55:58.618Z,101065.84
2022-10-22T00:58:32.503Z,101071.78
2022-10-22T01:01:02.451Z,101072.97
2022-10-22T01:03:31.511Z,101074.22
2022-10-22T01:06:05.930Z,101088.72
2022-10-22T01:08:46.270Z,101088.56
2022-10-22T01:11:23.537Z,101079.38
2022-10-22T01:14:03.410Z,101075.75
2022-10-22T01:16:41.662Z,101078.94
2022-10-22T01:19:30.445Z,101080.31
2022-10-22T01:22:10.588Z,101082.59
2022-10-22T01:25:09.023Z,101078.81
2022-10-22T01:27:58.013Z,101078.88
2022-10-22T01:30:30.349Z,101079.94
2022-10-22T01:33:04.023Z,101084.97
2022-10-22T01:35:36.704Z,101088.88
2022-10-22T01:38:12.058Z,101078.44
2022-10-22T01:40:42.390Z,101087.47
2022-10-22T01:43:13.863Z,101081.31
2022-10-22T01:45:55.403Z,101076.59
2022-10-22T01:48:42.141Z,101074.38
2022-10-22T01:51:37.838Z,101068.34
2022-10-22T01:54:23.271Z,101064.59
2022-10-22T01:57:10.811Z,101056.50
2022-10-22T01:59:54.450Z,101059.19
2022-10-22T02:02:37.837Z,101054.91
2022-10-22T02:05:14.061Z,101069.50
2022-10-22T02:07:51.459Z,101060.28
2022-10-22T02:10:25.243Z,101049.84
2022-10-22T02:12:57.278Z,101033.63
2022-10-22T02:15:32.043Z,101052.06
2022-10-22T02:18:02.938Z,101046.44
2022-10-22T02:20:35.982Z,101041.41
2022-10-22T02:23:06.883Z,101055.47
2022-10-22T02:25:40.672Z,101057.91
2022-10-22T02:28:16.569Z,101058.66
2022-10-22T02:30:50.493Z,101049.75
2022-10-22T02:33:27.886Z,101045.28
2022-10-22T02:36:00.104Z,101052.78
2022-10-22T02:38:35.962Z,101051.16
2022-10-22T02:41:05.166Z,101043.59
2022-10-22T02:43:43.172Z,101047.97
2022-10-22T02:46:13.629Z,101053.91
2022-10-22T02:48:45.450Z,101048.78
2022-10-22T02:51:14.512Z,101052.41
2022-10-22T02:53:44.091Z,101047.72
2022-10-22T02:56:14.167Z,101059.28
2022-10-22T02:58:43.282Z,101061.13
2022-10-22T03:01:15.385Z,101064.22
2022-10-22T03:03:46.922Z,101057.63
2022-10-22T03:06:15.682Z,101058.81
2022-10-22T03:08:50.346Z,101062.28
2022-10-22T03:11:19.554Z,101067.00
2022-10-22T03:13:49.367Z,101065.84
2022-10-22T03:16:17.959Z,101063.19
2022-10-22T03:18:48.063Z,101059.16
2022-10-22T03:21:33.409Z,101051.31
2022-10-22T03:24:12.231Z,101063.59
2022-10-22T03:26:43.480Z,101062.91
2022-10-22T03:29:14.213Z,101062.91
2022-10-22T03:31:43.110Z,101084.72
2022-10-22T03:34:13.540Z,101087.50
2022-10-22T03:36:43.913Z,101080.47
2022-10-22T03:39:17.549Z,101078.56
2022-10-22T03:41:47.319Z,101082.72
2022-10-22T03:44:18.517Z,101074.53
2022-10-22T03:46:47.493Z,101073.75
2022-10-22T03:49:19.972Z,101078.06
2022-10-22T03:51:49.330Z,101089.41
2022-10-22T03:54:18.551Z,101078.94
2022-10-22T03:56:47.308Z,101092.81
2022-10-22T03:59:16.421Z,101095.84
2022-10-22T04:01:46.023Z,101098.78
2022-10-22T04:04:17.673Z,101088.03
2022-10-22T04:06:47.938Z,101088.88
2022-10-22T04:09:16.425Z,101071.69
2022-10-22T04:11:46.049Z,101094.53
2022-10-22T04:14:14.803Z,101090.81
2022-10-22T04:16:43.261Z,101100.34
2022-10-22T04:19:14.843Z,101092.91
2022-10-22T04:21:44.261Z,101091.03
2022-10-22T04:24:14.557Z,101101.41
2022-10-22T04:26:43.400Z,101102.81
2022-10-22T04:29:15.978Z,101104.38
2022-10-22T04:31:45.602Z,101097.97
2022-10-22T04:34:15.382Z,101103.63
2022-10-22T04:36:44.613Z,101111.22
2022-10-22T04:39:17.870Z,101104.38
2022-10-22T04:41:47.782Z,101114.78
2022-10-22T04:44:17.028Z,101110.34
2022-10-22T04:46:50.030Z,101118.00
2022-10-22T04:49:20.365Z,101110.78
2022-10-22T04:51:49.916Z,101116.31
2022-10-22T04:54:32.274Z,101104.19
2022-10-22T04:57:04.033Z,101109.69
2022-10-22T04:59:33.633Z,101107.47
2022-10-22T05:02:03.329Z,101120.03
2022-10-22T05:04:32.219Z,101117.44
2022-10-22T05:07:01.402Z,101106.44
2022-10-22T05:09:34.821Z,101106.88
2022-10-22T05:12:03.454Z,101118.47
2022-10-22T05:14:32.702Z,101112.31
2022-10-22T05:17:01.786Z,101118.09
2022-10-22T05:19:33.422Z,101114.28
2022-10-22T05:22:04.924Z,101116.97
2022-10-22T05:24:37.553Z,101113.47
2022-10-22T05:27:06.365Z,101110.47
2022-10-22T05:29:35.006Z,101108.28
2022-10-22T05:32:03.792Z,101106.44
2022-10-22T05:34:35.133Z,101120.50
2022-10-22T05:37:05.720Z,101124.28
2022-10-22T05:39:40.615Z,101128.91
2022-10-22T05:42:09.408Z,101130.06
2022-10-22T05:44:41.247Z,101130.25
2022-10-22T05:47:10.166Z,101137.53
2022-10-22T05:49:43.349Z,101141.97
2022-10-22T05:52:13.587Z,101145.94
2022-10-22T05:54:47.732Z,101143.63
2022-10-22T05:57:18.310Z,101142.66
2022-10-22T05:59:53.730Z,101142.28
2022-10-22T06:02:22.251Z,101144.94
2022-10-22T06:04:50.683Z,101141.56
2022-10-22T06:07:23.749Z,101147.72
2022-10-22T06:10:08.739Z,101155.31
2022-10-22T06:12:37.865Z,101156.03
2022-10-22T06:15:15.523Z,101153.75
2022-10-22T06:17:46.567Z,101157.94
2022-10-22T06:20:18.637Z,101160.72
2022-10-22T06:22:48.358Z,101163.91
2022-10-22T06:25:19.801Z,101171.78
2022-10-22T06:27:52.378Z,101169.50
2022-10-22T06:30:22.897Z,101176.00
2022-10-22T06:32:56.084Z,101186.09
2022-10-22T06:35:26.824Z,101183.59
2022-10-22T06:37:56.486Z,101196.78
2022-10-22T06:40:26.683Z,101187.28
2022-10-22T06:42:56.043Z,101192.94
2022-10-22T06:45:24.990Z,101186.06
2022-10-22T06:47:53.751Z,101206.44
2022-10-22T06:50:23.463Z,101204.28
2022-10-22T06:52:51.966Z,101210.63
2022-10-22T06:55:21.519Z,101217.13
2022-10-22T06:57:52.134Z,101221.25
2022-10-22T07:00:21.476Z,101227.28
2022-10-22T07:02:57.677Z,101227.34
2022-10-22T07:05:30.518Z,101223.69
2022-10-22T07:07:59.170Z,101221.97
2022-10-22T07:10:30.708Z,101234.38
2022-10-22T07:13:03.369Z,101228.66
2022-10-22T07:15:32.023Z,101228.41
2022-10-22T07:18:01.182Z,101235.44
2022-10-22T07:20:32.741Z,101230.44
2022-10-22T07:23:08.468Z,101225.78
2022-10-22T07:25:38.036Z,101235.31
2022-10-22T07:28:09.357Z,101246.25
2022-10-22T07:30:38.837Z,101243.13
2022-10-22T07:33:10.100Z,101240.34
2022-10-22T07:35:40.095Z,101249.91
2022-10-22T07:38:11.146Z,101250.19
2022-10-22T07:40:40.641Z,101253.06
2022-10-22T07:43:14.562Z,101244.47
2022-10-22T07:45:45.516Z,101254.19
2022-10-22T07:48:14.672Z,101259.06
2022-10-22T07:53:17.395Z,101247.38
2022-10-22T07:55:48.992Z,101259.63
2022-10-22T07:58:23.777Z,101256.97
2022-10-22T08:00:56.441Z,101268.56
2022-10-22T08:03:26.505Z,101263.94
2022-10-22T08:05:57.151Z,101266.09
2022-10-22T08:08:31.150Z,101278.81
2022-10-22T08:11:04.026Z,101278.81
2022-10-22T08:13:34.430Z,101263.44
2022-10-22T08:16:04.754Z,101277.06
2022-10-22T08:18:33.736Z,101278.09
2022-10-22T08:21:03.525Z,101283.66
2022-10-22T08:23:35.741Z,101286.25
2022-10-22T08:26:06.822Z,101284.72
2022-10-22T08:28:39.236Z,101280.41
2022-10-22T08:31:10.069Z,101293.09
2022-10-22T08:33:41.033Z,101290.53
2022-10-22T08:36:14.170Z,101285.56
2022-10-22T08:38:43.330Z,101293.53
2022-10-22T08:41:17.074Z,101294.47
2022-10-22T08:44:39.481Z,101292.78
2022-10-22T08:47:37.965Z,101297.56
2022-10-22T08:50:11.090Z,101303.72
2022-10-22T08:52:43.528Z,101307.44
2022-10-22T08:55:16.661Z,101290.94
2022-10-22T08:58:01.422Z,101288.69
2022-10-22T09:00:37.869Z,101301.81
2022-10-22T09:03:42.541Z,101301.75
2022-10-22T09:06:16.991Z,101307.69
2022-10-22T09:08:48.010Z,101309.66
2022-10-22T09:11:32.852Z,101304.06
2022-10-22T09:14:04.268Z,101310.59
2022-10-22T09:16:58.372Z,101319.25
2022-10-22T09:19:35.403Z,101321.84
2022-10-22T09:22:19.790Z,101323.41
2022-10-22T09:24:55.915Z,101342.41
2022-10-22T09:27:32.643Z,101332.81
2022-10-22T09:30:03.280Z,101329.81
2022-10-22T09:32:38.040Z,101340.41
2022-10-22T09:35:11.380Z,101338.72
2022-10-22T09:37:50.943Z,101344.13
2022-10-22T09:40:20.218Z,101340.81
2022-10-22T09:42:51.109Z,101339.81
2022-10-22T09:45:27.817Z,101339.28
2022-10-22T09:48:19.443Z,101335.09
2022-10-22T09:50:50.287Z,101336.28
2022-10-22T09:53:39.994Z,101340.91
2022-10-22T09:56:20.460Z,101329.41
2022-10-22T09:58:52.782Z,101342.72
2022-10-22T10:01:27.113Z,101347.66
2022-10-22T10:04:09.662Z,101349.53
2022-10-22T10:06:47.595Z,101345.94
2022-10-22T10:09:22.190Z,101345.75
2022-10-22T10:12:01.401Z,101327.53
2022-10-22T10:14:39.908Z,101330.06
2022-10-22T10:17:21.278Z,101329.97
2022-10-22T10:20:07.768Z,101331.69
2022-10-22T10:22:52.867Z,101328.28
2022-10-22T10:25:51.155Z,101319.28
2022-10-22T10:28:44.747Z,101315.91
2022-10-22T10:31:34.319Z,101326.78
2022-10-22T10:34:16.468Z,101333.19
2022-10-22T10:37:02.162Z,101326.31
2022-10-22T10:39:36.053Z,101328.34
2022-10-22T10:42:20.031Z,101322.16
2022-10-22T10:45:04.422Z,101329.03
2022-10-22T10:48:24.671Z,101334.84
2022-10-22T10:51:05.882Z,101328.19
2022-10-22T10:53:55.244Z,101327.47
2022-10-22T10:56:39.246Z,101328.03
2022-10-22T10:59:25.786Z,101342.22
2022-10-22T11:02:17.399Z,101347.75
2022-10-22T11:05:30.028Z,101350.81
2022-10-22T11:08:03.399Z,101341.66
2022-10-22T11:10:43.323Z,101342.72
2022-10-22T11:13:22.973Z,101349.81
2022-10-22T11:16:02.702Z,101344.38
2022-10-22T11:18:40.750Z,101354.13
2022-10-22T11:21:23.901Z,101353.19
2022-10-22T11:24:03.013Z,101353.81
2022-10-22T11:26:46.325Z,101351.22
2022-10-22T11:29:30.654Z,101349.59
2022-10-22T11:32:07.458Z,101359.06
2022-10-22T11:35:02.287Z,101354.53
2022-10-22T11:37:49.263Z,101348.66
2022-10-22T11:40:27.127Z,101355.19
2022-10-22T11:43:03.434Z,101356.88
2022-10-22T11:45:43.336Z,101357.44
2022-10-22T11:48:21.164Z,101365.84
2022-10-22T11:50:54.964Z,101363.09
2022-10-22T11:53:39.301Z,101361.16
2022-10-22T11:56:26.830Z,101366.97
2022-10-22T11:58:58.530Z,101369.03
2022-10-22T12:01:48.360Z,101372.19
2022-10-22T12:04:24.738Z,101364.00
2022-10-22T12:07:23.751Z,101358.94
2022-10-22T12:10:13.826Z,101365.69
2022-10-22T12:12:57.505Z,101359.22
2022-10-22T12:15:30.761Z,101363.38
2022-10-22T12:18:05.338Z,101361.94
2022-10-22T12:20:47.571Z,101359.09
2022-10-22T12:23:25.775Z,101358.41
2022-10-22T12:28:48.354Z,101368.47
2022-10-22T12:36:55.463Z,101375.25
2022-10-22T12:39:30.036Z,101369.91
2022-10-22T12:42:01.767Z,101375.88
2022-10-22T12:44:30.711Z,101376.47
2022-10-22T12:47:01.138Z,101381.94
2022-10-22T12:49:38.121Z,101386.94
2022-10-22T12:52:16.392Z,101375.94
2022-10-22T12:54:48.422Z,101377.19
2022-10-22T12:57:24.882Z,101388.00
2022-10-22T13:00:06.454Z,101378.19
2022-10-22T13:02:42.944Z,101378.47
2022-10-22T13:05:25.281Z,101379.06
2022-10-22T13:08:08.634Z,101379.34
2022-10-22T13:10:42.470Z,101384.78
2022-10-22T13:13:45.524Z,101385.41
2022-10-22T13:16:24.495Z,101384.78
2022-10-22T13:18:57.046Z,101390.78
2022-10-22T13:21:36.421Z,101388.34
2022-10-22T13:24:21.685Z,101391.50
2022-10-22T13:26:54.685Z,101391.97
2022-10-22T13:29:25.814Z,101390.44
2022-10-22T13:31:59.187Z,101391.94
2022-10-22T13:34:30.124Z,101389.13
2022-10-22T13:37:01.701Z,101395.81
2022-10-22T13:39:33.744Z,101386.97
2022-10-22T13:42:02.886Z,101392.69
2022-10-22T13:44:31.750Z,101388.16
2022-10-22T13:47:02.717Z,101397.56
2022-10-22T13:49:35.479Z,101388.28
2022-10-22T13:52:04.949Z,101395.44
2022-10-22T13:54:37.849Z,101398.69
2022-10-22T13:57:11.711Z,101388.44
2022-10-22T13:59:40.399Z,101393.41
2022-10-22T14:02:13.283Z,101398.19
2022-10-22T14:04:44.422Z,101400.38
2022-10-22T14:07:17.021Z,101404.56
2022-10-22T14:09:46.936Z,101400.75
2022-10-22T14:12:18.338Z,101398.03
2022-10-22T14:14:47.348Z,101396.56
2022-10-22T14:17:18.029Z,101406.50
2022-10-22T14:19:50.799Z,101409.28
2022-10-22T14:22:26.329Z,101398.50
2022-10-22T14:24:55.526Z,101407.75
2022-10-22T14:27:24.098Z,101406.56
2022-10-22T14:29:56.043Z,101403.72
2022-10-22T14:32:29.586Z,101404.84
2022-10-22T14:35:01.546Z,101402.13
2022-10-22T14:40:18.756Z,101421.75
2022-10-22T14:42:50.536Z,101422.94
2022-10-22T14:45:24.991Z,101421.22
2022-10-22T14:47:55.709Z,101430.97
2022-10-22T14:50:30.285Z,101425.81
2022-10-22T14:52:59.813Z,101430.66
2022-10-22T14:55:29.084Z,101434.78
2022-10-22T14:57:59.529Z,101437.97
2022-10-22T15:00:28.689Z,101438.91
2022-10-22T15:03:03.408Z,101437.63
2022-10-22T15:05:36.334Z,101440.28
2022-10-22T15:08:05.433Z,101439.84
2022-10-22T15:10:36.663Z,101436.81
2022-10-22T15:13:08.845Z,101445.00
2022-10-22T15:15:39.868Z,101450.31
2022-10-22T15:18:09.506Z,101446.88
2022-10-22T15:20:39.964Z,101434.97
2022-10-22T15:23:10.320Z,101449.16
2022-10-22T15:25:39.794Z,101451.19
2022-10-22T15:28:10.009Z,101453.34
2022-10-22T15:30:38.747Z,101444.72
2022-10-22T15:33:17.022Z,101442.00
2022-10-22T15:35:48.494Z,101448.16
2022-10-22T15:38:18.379Z,101443.31
2022-10-22T15:40:47.463Z,101446.72
2022-10-22T15:43:16.628Z,101447.13
2022-10-22T15:45:45.860Z,101454.94
2022-10-22T15:48:15.531Z,101464.13
2022-10-22T15:50:44.511Z,101464.72
2022-10-22T15:53:15.122Z,101457.03
2022-10-22T15:55:51.695Z,101469.81
2022-10-22T15:58:20.898Z,101468.72
2022-10-22T16:00:49.758Z,101462.25
2022-10-22T16:03:18.634Z,101460.72
2022-10-22T16:05:54.624Z,101471.81
2022-10-22T16:08:27.106Z,101464.78
2022-10-22T16:10:56.037Z,101475.91
2022-10-22T16:13:25.944Z,101470.72
2022-10-22T16:15:57.613Z,101476.00
2022-10-22T16:18:27.028Z,101485.00
2022-10-22T16:20:55.572Z,101478.84
2022-10-22T16:23:27.201Z,101481.81
2022-10-22T16:25:55.922Z,101483.59
2022-10-22T16:28:26.943Z,101483.09
2022-10-22T16:30:56.241Z,101487.00
2022-10-22T16:33:25.476Z,101501.91
2022-10-22T16:35:55.024Z,101496.94
2022-10-22T16:38:24.314Z,101502.41
2022-10-22T16:40:56.124Z,101495.50
2022-10-22T16:43:24.533Z,101511.53
2022-10-22T16:45:57.515Z,101509.31
2022-10-22T16:48:40.632Z,101506.06
2022-10-22T16:51:12.707Z,101511.97
2022-10-22T16:53:43.331Z,101501.22
2022-10-22T16:56:16.390Z,101519.16
2022-10-22T16:58:51.523Z,101508.06
2022-10-22T17:01:22.999Z,101513.09
2022-10-22T17:03:54.923Z,101516.50
2022-10-22T17:06:26.917Z,101513.84
2022-10-22T17:08:58.087Z,101521.59
2022-10-22T17:11:31.500Z,101512.41
2022-10-22T17:14:00.620Z,101519.28
2022-10-22T17:16:29.697Z,101519.94
2022-10-22T17:18:59.850Z,101523.91
2022-10-22T17:21:28.973Z,101524.25
2022-10-22T17:23:57.663Z,101527.06
2022-10-22T17:26:28.841Z,101528.38
2022-10-22T17:28:58.510Z,101531.25
2022-10-22T17:31:30.131Z,101542.06
2022-10-22T17:33:59.962Z,101542.25
2022-10-22T17:36:35.676Z,101537.31
2022-10-22T17:39:09.060Z,101537.53
2022-10-22T17:41:39.502Z,101541.91
2022-10-22T17:44:10.528Z,101544.53
2022-10-22T17:46:49.638Z,101541.50
2022-10-22T17:49:22.188Z,101544.53
2022-10-22T17:51:54.147Z,101551.88
2022-10-22T17:54:23.244Z,101568.78
2022-10-22T17:56:56.083Z,101571.84
2022-10-22T17:59:25.977Z,101568.81
2022-10-22T18:01:58.118Z,101563.72
2022-10-22T18:04:54.238Z,101569.31
2022-10-22T18:07:25.099Z,101575.25
2022-10-22T18:09:55.235Z,101581.38
2022-10-22T18:12:27.210Z,101589.38
2022-10-22T18:15:00.539Z,101600.81
2022-10-22T18:17:34.604Z,101593.09
2022-10-22T18:20:11.108Z,101588.22
2022-10-22T18:22:45.678Z,101589.44
2022-10-22T18:25:17.331Z,101585.19
2022-10-22T18:27:52.067Z,101602.94
2022-10-22T18:30:20.868Z,101593.41
2022-10-22T18:33:07.994Z,101604.00
2022-10-22T18:35:37.051Z,101604.88
2022-10-22T18:38:05.861Z,101615.09
2022-10-22T18:40:37.181Z,101595.91
2022-10-22T18:43:07.733Z,101597.53
2022-10-22T18:45:36.966Z,101592.97
2022-10-22T18:48:06.267Z,101592.44
2022-10-22T18:50:35.690Z,101603.34
2022-10-22T18:53:05.040Z,101592.56
2022-10-22T18:55:34.562Z,101594.38
2022-10-22T18:58:03.608Z,101596.63
2022-10-22T19:00:35.342Z,101604.91
2022-10-22T19:03:04.257Z,101604.81
2022-10-22T19:05:33.152Z,101601.75
2022-10-22T19:08:03.495Z,101597.22
2022-10-22T19:10:32.916Z,101598.84
2022-10-22T19:13:01.677Z,101590.97
2022-10-22T19:15:30.687Z,101610.44
2022-10-22T19:18:02.347Z,101623.94
2022-10-22T19:20:30.789Z,101638.66
2022-10-22T19:23:00.800Z,101645.03
2022-10-22T19:25:30.128Z,101636.34
2022-10-22T19:27:58.911Z,101632.88
2022-10-22T19:30:29.345Z,101620.81
2022-10-22T19:32:57.843Z,101647.84
2022-10-22T19:35:28.219Z,101655.84
2022-10-22T19:37:57.050Z,101668.00
2022-10-22T19:40:27.468Z,101659.81
2022-10-22T19:42:56.345Z,101652.31
2022-10-22T19:45:27.067Z,101660.47
2022-10-22T19:47:56.117Z,101646.19
2022-10-22T19:50:27.415Z,101649.94
2022-10-22T19:52:56.151Z,101655.44
2022-10-22T19:55:25.319Z,101647.34
2022-10-22T19:57:55.411Z,101637.28
2022-10-22T20:00:24.466Z,101649.94
2022-10-22T20:02:53.986Z,101640.19
2022-10-22T20:05:25.195Z,101638.19
2022-10-22T20:07:56.909Z,101636.75
2022-10-22T20:10:25.805Z,101647.84
2022-10-22T20:12:54.443Z,101645.31
2022-10-22T20:15:23.293Z,101658.53
2022-10-22T20:17:54.561Z,101652.84
2022-10-22T20:20:28.951Z,101654.84
2022-10-22T20:23:01.966Z,101663.16
2022-10-22T20:25:31.554Z,101673.00
2022-10-22T20:28:00.516Z,101654.09
2022-10-22T20:30:28.983Z,101659.88
2022-10-22T20:33:01.283Z,101666.13
2022-10-22T20:35:30.957Z,101667.88
2022-10-22T20:38:01.123Z,101678.00
2022-10-22T20:40:32.729Z,101666.03
2022-10-22T20:43:02.073Z,101666.91
2022-10-22T20:45:32.768Z,101673.41
2022-10-22T20:48:05.683Z,101665.59
2022-10-22T20:50:38.167Z,101669.13
2022-10-22T20:53:08.961Z,101659.00
2022-10-22T20:55:39.596Z,101655.44
2022-10-22T20:58:08.221Z,101662.59
2022-10-22T21:00:40.724Z,101657.38
2022-10-22T21:03:09.793Z,101663.53
2022-10-22T21:05:39.443Z,101667.41
2022-10-22T21:08:10.519Z,101679.63
2022-10-22T21:10:43.349Z,101679.13
2022-10-22T21:13:15.864Z,101678.63
2022-10-22T21:15:44.437Z,101672.88
2022-10-22T21:18:14.447Z,101673.00
2022-10-22T21:20:45.015Z,101678.66
2022-10-22T21:23:16.525Z,101672.09
2022-10-22T21:25:55.465Z,101662.19
2022-10-22T21:28:24.910Z,101674.91
2022-10-22T21:30:54.188Z,101679.63
2022-10-22T21:33:24.605Z,101676.84
2022-10-22T21:35:57.309Z,101674.13
2022-10-22T21:38:27.898Z,101691.97
2022-10-22T21:40:56.932Z,101694.88
2022-10-22T21:43:25.665Z,101681.84
2022-10-22T21:46:07.978Z,101684.44
2022-10-22T21:48:40.451Z,101686.09
2022-10-22T21:51:12.092Z,101678.69
2022-10-22T21:53:43.035Z,101679.34
2022-10-22T21:56:18.503Z,101683.56
2022-10-22T21:58:46.744Z,101690.03
2022-10-22T22:01:17.111Z,101689.19
2022-10-22T22:03:49.256Z,101678.38
2022-10-22T22:06:24.655Z,101677.53
2022-10-22T22:08:56.669Z,101674.44
2022-10-22T22:11:28.295Z,101681.44
2022-10-22T22:13:59.087Z,101691.38
2022-10-22T22:16:31.335Z,101689.28
2022-10-22T22:21:33.492Z,101677.22
2022-10-22T22:24:05.368Z,101679.03
2022-10-22T22:26:35.496Z,101684.94
2022-10-22T22:29:04.682Z,101684.16
2022-10-22T22:31:37.270Z,101674.81
2022-10-22T22:34:08.097Z,101684.31
2022-10-22T22:36:41.074Z,101681.44
2022-10-22T22:39:16.130Z,101661.31
2022-10-22T22:41:47.944Z,101650.81
2022-10-22T22:44:17.320Z,101651.50
2022-10-22T22:46:46.472Z,101652.94
2022-10-22T22:49:15.780Z,101646.00
2022-10-22T22:51:45.041Z,101656.13
2022-10-22T22:54:14.954Z,101639.81
2022-10-22T22:56:44.107Z,101640.31
2022-10-22T22:59:13.358Z,101634.91
2022-10-22T23:01:45.553Z,101637.13
2022-10-22T23:04:19.088Z,101629.25
2022-10-22T23:06:48.038Z,101641.97
2022-10-22T23:09:24.411Z,101629.44
2022-10-22T23:11:53.413Z,101646.00
2022-10-22T23:14:23.617Z,101648.72
2022-10-22T23:17:00.528Z,101659.03
2022-10-22T23:19:30.239Z,101653.66
2022-10-22T23:22:01.964Z,101654.41
2022-10-22T23:24:32.552Z,101647.63
2022-10-22T23:27:03.909Z,101643.28
2022-10-22T23:29:39.785Z,101648.50
2022-10-22T23:32:15.434Z,101642.28
2022-10-22T23:34:44.028Z,101657.75
2022-10-22T23:37:17.645Z,101641.38
2022-10-22T23:39:47.407Z,101642.00
2022-10-22T23:42:19.087Z,101635.56
2022-10-22T23:44:47.669Z,101637.09
2022-10-22T23:47:17.875Z,101634.38
2022-10-22T23:49:46.813Z,101640.91
2022-10-22T23:52:15.344Z,101641.06
2022-10-22T23:54:44.046Z,101631.09
2022-10-22T23:57:15.226Z,101630.91
2022-10-22T23:59:44.245Z,101629.91
